sensor_id;sensor_type;location;lat;lon;timestamp;pressure;altitude;pressure_sealevel;temperature;humidity
48156;BME280;35568;48.104;11.782;2023-06-26T00:02:21;95487.44;;;17.01;42.51
48156;BME280;35568;48.104;11.782;2023-06-26T00:04:48;95487.24;;;16.97;42.52
48156;BME280;35568;48.104;11.782;2023-06-26T00:07:15;95485.41;;;17.21;42.51
48156;BME280;35568;48.104;11.782;2023-06-26T00:09:41;95487.35;;;17.21;42.27
48156;BME280;35568;48.104;11.782;2023-06-26T00:12:09;95487.01;;;17.00;42.36
48156;BME280;35568;48.104;11.782;2023-06-26T00:14:35;95489.35;;;16.93;42.49
48156;BME280;35568;48.104;11.782;2023-06-26T00:17:02;95485.67;;;16.72;42.97
48156;BME280;35568;48.104;11.782;2023-06-26T00:19:30;95483.86;;;16.81;43.07
48156;BME280;35568;48.104;11.782;2023-06-26T00:21:57;95481.19;;;16.58;42.91
48156;BME280;35568;48.104;11.782;2023-06-26T00:24:24;95479.03;;;17.05;42.89
48156;BME280;35568;48.104;11.782;2023-06-26T00:26:51;95481.07;;;16.56;42.77
48156;BME280;35568;48.104;11.782;2023-06-26T00:29:18;95481.43;;;16.70;43.19
48156;BME280;35568;48.104;11.782;2023-06-26T00:31:44;95483.33;;;16.85;42.96
48156;BME280;35568;48.104;11.782;2023-06-26T00:34:11;95486.94;;;16.70;42.88
48156;BME280;35568;48.104;11.782;2023-06-26T00:36:38;95489.64;;;16.60;42.78
48156;BME280;35568;48.104;11.782;2023-06-26T00:39:05;95489.53;;;16.71;42.72
48156;BME280;35568;48.104;11.782;2023-06-26T00:41:32;95490.50;;;16.47;42.90
48156;BME280;35568;48.104;11.782;2023-06-26T00:43:58;95489.99;;;16.74;42.62
48156;BME280;35568;48.104;11.782;2023-06-26T00:46:25;95491.32;;;17.01;42.68
48156;BME280;35568;48.104;11.782;2023-06-26T00:48:52;95494.51;;;16.57;42.41
48156;BME280;35568;48.104;11.782;2023-06-26T00:51:20;95495.00;;;16.78;42.37
48156;BME280;35568;48.104;11.782;2023-06-26T00:53:48;95494.75;;;16.53;42.30
48156;BME280;35568;48.104;11.782;2023-06-26T00:56:15;95494.63;;;16.37;42.56
48156;BME280;35568;48.104;11.782;2023-06-26T00:58:43;95494.09;;;16.80;42.61
48156;BME280;35568;48.104;11.782;2023-06-26T01:01:11;95494.38;;;16.41;42.78
48156;BME280;35568;48.104;11.782;2023-06-26T01:03:37;95494.83;;;16.70;42.96
48156;BME280;35568;48.104;11.782;2023-06-26T01:06:04;95495.23;;;16.37;42.93
48156;BME280;35568;48.104;11.782;2023-06-26T01:08:32;95491.62;;;16.34;42.94
48156;BME280;35568;48.104;11.782;2023-06-26T01:10:59;95488.73;;;16.20;43.32
48156;BME280;35568;48.104;11.782;2023-06-26T01:13:28;95486.17;;;16.36;43.36
48156;BME280;35568;48.104;11.782;2023-06-26T01:15:56;95484.68;;;16.37;43.32
48156;BME280;35568;48.104;11.782;2023-06-26T01:18:24;95487.25;;;16.29;43.58
48156;BME280;35568;48.104;11.782;2023-06-26T01:20:51;95487.24;;;15.98;43.59
48156;BME280;35568;48.104;11.782;2023-06-26T01:23:22;95486.47;;;16.02;43.96
48156;BME280;35568;48.104;11.782;2023-06-26T01:28:28;95484.20;;;15.91;44.07
48156;BME280;35568;48.104;11.782;2023-06-26T01:30:56;95481.08;;;15.85;44.23
48156;BME280;35568;48.104;11.782;2023-06-26T01:33:23;95480.94;;;15.88;44.14
48156;BME280;35568;48.104;11.782;2023-06-26T01:35:50;95482.70;;;15.99;44.42
48156;BME280;35568;48.104;11.782;2023-06-26T01:38:19;95479.96;;;15.99;44.47
48156;BME280;35568;48.104;11.782;2023-06-26T01:40:46;95476.62;;;15.75;44.25
48156;BME280;35568;48.104;11.782;2023-06-26T01:43:20;95477.70;;;15.65;44.37
48156;BME280;35568;48.104;11.782;2023-06-26T01:45:51;95476.81;;;15.63;44.65
48156;BME280;35568;48.104;11.782;2023-06-26T01:48:27;95477.34;;;15.62;44.49
48156;BME280;35568;48.104;11.782;2023-06-26T01:50:59;95474.66;;;15.62;44.40
48156;BME280;35568;48.104;11.782;2023-06-26T01:53:30;95477.01;;;15.53;44.61
48156;BME280;35568;48.104;11.782;2023-06-26T01:56:01;95474.46;;;15.56;44.50
48156;BME280;35568;48.104;11.782;2023-06-26T01:58:29;95473.85;;;15.47;44.59
48156;BME280;35568;48.104;11.782;2023-06-26T02:00:58;95476.00;;;16.06;44.51
48156;BME280;35568;48.104;11.782;2023-06-26T02:03:25;95477.69;;;15.57;44.52
48156;BME280;35568;48.104;11.782;2023-06-26T02:05:52;95478.00;;;15.79;44.44
48156;BME280;35568;48.104;11.782;2023-06-26T02:08:19;95476.77;;;15.57;44.40
48156;BME280;35568;48.104;11.782;2023-06-26T02:10:46;95478.92;;;15.55;44.38
48156;BME280;35568;48.104;11.782;2023-06-26T02:13:13;95479.77;;;15.54;44.42
48156;BME280;35568;48.104;11.782;2023-06-26T02:15:40;95480.28;;;15.57;44.41
48156;BME280;35568;48.104;11.782;2023-06-26T02:18:07;95478.87;;;15.55;44.24
48156;BME280;35568;48.104;11.782;2023-06-26T02:20:33;95480.37;;;16.10;44.18
48156;BME280;35568;48.104;11.782;2023-06-26T02:23:00;95481.75;;;15.76;44.40
48156;BME280;35568;48.104;11.782;2023-06-26T02:25:27;95482.07;;;15.45;44.65
48156;BME280;35568;48.104;11.782;2023-06-26T02:27:54;95484.53;;;15.47;44.62
48156;BME280;35568;48.104;11.782;2023-06-26T02:30:21;95485.61;;;15.65;44.44
48156;BME280;35568;48.104;11.782;2023-06-26T02:32:47;95486.11;;;15.53;44.54
48156;BME280;35568;48.104;11.782;2023-06-26T02:35:14;95485.05;;;15.39;44.56
48156;BME280;35568;48.104;11.782;2023-06-26T02:37:42;95485.11;;;15.89;44.56
48156;BME280;35568;48.104;11.782;2023-06-26T02:40:09;95486.59;;;15.86;44.54
48156;BME280;35568;48.104;11.782;2023-06-26T02:42:36;95482.96;;;15.84;44.53
48156;BME280;35568;48.104;11.782;2023-06-26T02:45:04;95480.81;;;15.60;44.47
48156;BME280;35568;48.104;11.782;2023-06-26T02:47:31;95479.54;;;15.28;44.61
48156;BME280;35568;48.104;11.782;2023-06-26T02:49:58;95481.14;;;15.74;44.67
48156;BME280;35568;48.104;11.782;2023-06-26T02:52:25;95481.47;;;15.62;44.87
48156;BME280;35568;48.104;11.782;2023-06-26T02:54:52;95484.59;;;15.12;44.99
48156;BME280;35568;48.104;11.782;2023-06-26T02:57:18;95486.30;;;15.30;45.01
48156;BME280;35568;48.104;11.782;2023-06-26T02:59:45;95488.99;;;15.29;45.07
48156;BME280;35568;48.104;11.782;2023-06-26T03:03:00;95484.61;;;15.45;44.46
48156;BME280;35568;48.104;11.782;2023-06-26T03:05:27;95484.62;;;15.41;43.96
48156;BME280;35568;48.104;11.782;2023-06-26T03:07:54;95487.71;;;15.88;43.72
48156;BME280;35568;48.104;11.782;2023-06-26T03:10:21;95485.07;;;15.69;43.55
48156;BME280;35568;48.104;11.782;2023-06-26T03:12:49;95483.99;;;15.85;43.19
48156;BME280;35568;48.104;11.782;2023-06-26T03:15:16;95485.18;;;15.87;43.10
48156;BME280;35568;48.104;11.782;2023-06-26T03:17:43;95481.41;;;15.64;43.18
48156;BME280;35568;48.104;11.782;2023-06-26T03:20:10;95478.04;;;15.93;42.86
48156;BME280;35568;48.104;11.782;2023-06-26T03:22:36;95475.72;;;15.95;42.80
48156;BME280;35568;48.104;11.782;2023-06-26T03:25:04;95474.84;;;15.78;42.79
48156;BME280;35568;48.104;11.782;2023-06-26T03:27:31;95474.00;;;15.77;42.74
48156;BME280;35568;48.104;11.782;2023-06-26T03:29:57;95474.18;;;15.78;42.73
48156;BME280;35568;48.104;11.782;2023-06-26T03:32:24;95475.47;;;16.29;42.79
48156;BME280;35568;48.104;11.782;2023-06-26T03:34:51;95481.05;;;15.99;42.89
48156;BME280;35568;48.104;11.782;2023-06-26T03:37:18;95483.73;;;15.73;42.97
48156;BME280;35568;48.104;11.782;2023-06-26T03:39:45;95483.76;;;15.75;42.76
48156;BME280;35568;48.104;11.782;2023-06-26T03:42:12;95483.66;;;15.56;43.11
48156;BME280;35568;48.104;11.782;2023-06-26T03:44:39;95484.71;;;15.91;42.91
48156;BME280;35568;48.104;11.782;2023-06-26T03:47:06;95484.44;;;15.60;42.92
48156;BME280;35568;48.104;11.782;2023-06-26T03:49:32;95485.45;;;15.54;42.90
48156;BME280;35568;48.104;11.782;2023-06-26T03:52:00;95487.78;;;15.62;42.96
48156;BME280;35568;48.104;11.782;2023-06-26T03:54:26;95487.95;;;15.64;42.93
48156;BME280;35568;48.104;11.782;2023-06-26T03:56:53;95488.11;;;15.88;42.63
48156;BME280;35568;48.104;11.782;2023-06-26T03:59:20;95489.26;;;15.70;42.77
48156;BME280;35568;48.104;11.782;2023-06-26T04:01:47;95486.04;;;15.81;42.39
48156;BME280;35568;48.104;11.782;2023-06-26T04:04:14;95486.61;;;15.76;42.25
48156;BME280;35568;48.104;11.782;2023-06-26T04:06:41;95484.76;;;16.16;41.97
48156;BME280;35568;48.104;11.782;2023-06-26T04:09:08;95482.46;;;16.63;41.71
48156;BME280;35568;48.104;11.782;2023-06-26T04:11:35;95481.41;;;16.58;41.48
48156;BME280;35568;48.104;11.782;2023-06-26T04:14:01;95481.47;;;16.48;41.50
48156;BME280;35568;48.104;11.782;2023-06-26T04:16:28;95480.50;;;16.69;40.94
48156;BME280;35568;48.104;11.782;2023-06-26T04:18:56;95483.50;;;16.76;40.78
48156;BME280;35568;48.104;11.782;2023-06-26T04:21:23;95484.26;;;17.18;40.74
48156;BME280;35568;48.104;11.782;2023-06-26T04:23:50;95487.88;;;17.19;40.45
48156;BME280;35568;48.104;11.782;2023-06-26T04:26:18;95489.26;;;17.08;40.16
48156;BME280;35568;48.104;11.782;2023-06-26T04:28:44;95488.75;;;17.21;40.03
48156;BME280;35568;48.104;11.782;2023-06-26T04:31:11;95491.30;;;17.35;39.61
48156;BME280;35568;48.104;11.782;2023-06-26T04:33:38;95494.61;;;17.44;39.60
48156;BME280;35568;48.104;11.782;2023-06-26T04:36:05;95493.39;;;17.52;39.28
48156;BME280;35568;48.104;11.782;2023-06-26T04:38:33;95493.02;;;17.93;39.00
48156;BME280;35568;48.104;11.782;2023-06-26T04:41:00;95491.34;;;17.99;38.83
48156;BME280;35568;48.104;11.782;2023-06-26T04:43:27;95494.32;;;18.14;38.79
48156;BME280;35568;48.104;11.782;2023-06-26T04:45:54;95492.31;;;18.33;38.38
48156;BME280;35568;48.104;11.782;2023-06-26T04:48:21;95493.58;;;18.19;38.35
48156;BME280;35568;48.104;11.782;2023-06-26T04:50:47;95493.76;;;18.50;38.23
48156;BME280;35568;48.104;11.782;2023-06-26T04:53:14;95489.40;;;18.63;37.47
48156;BME280;35568;48.104;11.782;2023-06-26T04:55:41;95488.39;;;18.56;37.80
48156;BME280;35568;48.104;11.782;2023-06-26T04:58:08;95486.66;;;18.80;37.49
48156;BME280;35568;48.104;11.782;2023-06-26T05:00:34;95487.59;;;19.06;37.59
48156;BME280;35568;48.104;11.782;2023-06-26T05:03:01;95484.54;;;19.28;37.16
48156;BME280;35568;48.104;11.782;2023-06-26T05:05:28;95490.53;;;19.19;37.04
48156;BME280;35568;48.104;11.782;2023-06-26T05:07:56;95491.13;;;19.44;36.51
48156;BME280;35568;48.104;11.782;2023-06-26T05:10:23;95490.54;;;19.96;36.40
48156;BME280;35568;48.104;11.782;2023-06-26T05:12:50;95491.56;;;19.82;36.02
48156;BME280;35568;48.104;11.782;2023-06-26T05:15:17;95487.01;;;20.06;36.00
48156;BME280;35568;48.104;11.782;2023-06-26T05:17:43;95486.59;;;20.24;35.48
48156;BME280;35568;48.104;11.782;2023-06-26T05:20:11;95488.54;;;20.62;35.14
48156;BME280;35568;48.104;11.782;2023-06-26T05:22:37;95487.55;;;20.73;35.00
48156;BME280;35568;48.104;11.782;2023-06-26T05:25:07;95485.79;;;20.78;34.72
48156;BME280;35568;48.104;11.782;2023-06-26T05:27:36;95489.56;;;21.11;34.75
48156;BME280;35568;48.104;11.782;2023-06-26T05:30:04;95487.40;;;21.50;34.48
48156;BME280;35568;48.104;11.782;2023-06-26T05:32:33;95488.05;;;21.91;33.83
48156;BME280;35568;48.104;11.782;2023-06-26T05:35:02;95486.68;;;22.20;33.37
48156;BME280;35568;48.104;11.782;2023-06-26T05:37:31;95488.86;;;22.37;33.22
48156;BME280;35568;48.104;11.782;2023-06-26T05:39:59;95489.95;;;22.93;33.00
48156;BME280;35568;48.104;11.782;2023-06-26T05:42:27;95484.30;;;22.84;32.43
48156;BME280;35568;48.104;11.782;2023-06-26T05:44:53;95484.46;;;23.27;32.34
48156;BME280;35568;48.104;11.782;2023-06-26T05:47:20;95487.36;;;22.83;32.31
48156;BME280;35568;48.104;11.782;2023-06-26T05:49:47;95484.53;;;22.81;32.03
48156;BME280;35568;48.104;11.782;2023-06-26T05:52:14;95484.13;;;22.85;31.96
48156;BME280;35568;48.104;11.782;2023-06-26T05:54:42;95484.15;;;23.26;31.77
48156;BME280;35568;48.104;11.782;2023-06-26T05:57:09;95485.28;;;23.64;31.48
48156;BME280;35568;48.104;11.782;2023-06-26T05:59:37;95484.66;;;23.43;31.38
48156;BME280;35568;48.104;11.782;2023-06-26T06:02:06;95484.35;;;23.43;31.28
48156;BME280;35568;48.104;11.782;2023-06-26T06:04:32;95481.14;;;23.70;31.01
48156;BME280;35568;48.104;11.782;2023-06-26T06:06:59;95477.85;;;24.08;30.98
48156;BME280;35568;48.104;11.782;2023-06-26T06:09:26;95479.82;;;24.47;30.56
48156;BME280;35568;48.104;11.782;2023-06-26T06:11:53;95480.64;;;25.02;30.23
48156;BME280;35568;48.104;11.782;2023-06-26T06:14:20;95478.16;;;24.99;29.92
48156;BME280;35568;48.104;11.782;2023-06-26T06:16:47;95478.01;;;25.63;29.27
48156;BME280;35568;48.104;11.782;2023-06-26T06:19:14;95478.07;;;25.60;29.08
48156;BME280;35568;48.104;11.782;2023-06-26T06:21:42;95480.59;;;25.63;29.15
48156;BME280;35568;48.104;11.782;2023-06-26T06:24:09;95481.82;;;25.81;28.79
48156;BME280;35568;48.104;11.782;2023-06-26T06:26:36;95484.89;;;26.03;28.65
48156;BME280;35568;48.104;11.782;2023-06-26T06:29:03;95482.22;;;25.80;29.10
48156;BME280;35568;48.104;11.782;2023-06-26T06:31:29;95473.63;;;25.90;28.34
48156;BME280;35568;48.104;11.782;2023-06-26T06:33:56;95474.73;;;26.26;28.31
48156;BME280;35568;48.104;11.782;2023-06-26T06:36:23;95476.13;;;26.69;27.87
48156;BME280;35568;48.104;11.782;2023-06-26T06:38:51;95479.14;;;26.69;27.65
48156;BME280;35568;48.104;11.782;2023-06-26T06:41:19;95480.17;;;26.95;27.66
48156;BME280;35568;48.104;11.782;2023-06-26T06:43:46;95483.15;;;27.22;27.39
48156;BME280;35568;48.104;11.782;2023-06-26T06:46:14;95481.31;;;27.09;27.36
48156;BME280;35568;48.104;11.782;2023-06-26T06:48:40;95480.57;;;27.54;27.03
48156;BME280;35568;48.104;11.782;2023-06-26T06:51:08;95478.62;;;28.06;26.66
48156;BME280;35568;48.104;11.782;2023-06-26T06:53:35;95472.07;;;28.75;26.21
48156;BME280;35568;48.104;11.782;2023-06-26T06:56:01;95476.61;;;28.72;26.16
48156;BME280;35568;48.104;11.782;2023-06-26T06:58:28;95479.18;;;29.23;25.75
48156;BME280;35568;48.104;11.782;2023-06-26T07:00:55;95482.56;;;29.59;25.40
48156;BME280;35568;48.104;11.782;2023-06-26T07:03:23;95478.27;;;29.61;24.86
48156;BME280;35568;48.104;11.782;2023-06-26T07:05:49;95481.45;;;29.35;25.41
48156;BME280;35568;48.104;11.782;2023-06-26T07:08:16;95481.52;;;29.75;24.98
48156;BME280;35568;48.104;11.782;2023-06-26T07:10:43;95476.94;;;29.73;25.05
48156;BME280;35568;48.104;11.782;2023-06-26T07:13:10;95474.25;;;29.81;24.03
48156;BME280;35568;48.104;11.782;2023-06-26T07:15:37;95473.06;;;30.06;23.75
48156;BME280;35568;48.104;11.782;2023-06-26T07:18:04;95472.12;;;30.36;23.59
48156;BME280;35568;48.104;11.782;2023-06-26T07:20:31;95471.10;;;30.38;23.19
48156;BME280;35568;48.104;11.782;2023-06-26T07:22:57;95467.77;;;30.30;23.00
48156;BME280;35568;48.104;11.782;2023-06-26T07:25:24;95469.24;;;30.33;23.23
48156;BME280;35568;48.104;11.782;2023-06-26T07:27:51;95467.34;;;30.86;22.78
48156;BME280;35568;48.104;11.782;2023-06-26T07:30:19;95467.90;;;29.90;22.35
48156;BME280;35568;48.104;11.782;2023-06-26T07:32:46;95469.44;;;31.57;21.39
48156;BME280;35568;48.104;11.782;2023-06-26T07:35:13;95476.43;;;31.35;21.54
48156;BME280;35568;48.104;11.782;2023-06-26T07:37:39;95473.65;;;31.79;20.96
48156;BME280;35568;48.104;11.782;2023-06-26T07:40:08;95476.23;;;31.91;20.70
48156;BME280;35568;48.104;11.782;2023-06-26T07:42:36;95471.88;;;32.41;20.70
48156;BME280;35568;48.104;11.782;2023-06-26T07:45:04;95471.88;;;32.43;20.44
48156;BME280;35568;48.104;11.782;2023-06-26T07:47:31;95471.98;;;32.25;20.82
48156;BME280;35568;48.104;11.782;2023-06-26T07:49:58;95471.02;;;32.77;20.22
48156;BME280;35568;48.104;11.782;2023-06-26T07:52:25;95468.96;;;32.47;20.20
48156;BME280;35568;48.104;11.782;2023-06-26T07:54:51;95473.45;;;32.31;20.82
48156;BME280;35568;48.104;11.782;2023-06-26T07:57:18;95471.82;;;32.67;20.10
48156;BME280;35568;48.104;11.782;2023-06-26T07:59:45;95467.50;;;32.54;20.23
48156;BME280;35568;48.104;11.782;2023-06-26T08:02:12;95468.67;;;32.61;19.74
48156;BME280;35568;48.104;11.782;2023-06-26T08:04:38;95466.70;;;32.55;19.99
48156;BME280;35568;48.104;11.782;2023-06-26T08:07:06;95466.54;;;33.07;20.12
48156;BME280;35568;48.104;11.782;2023-06-26T08:09:33;95466.13;;;33.47;19.70
48156;BME280;35568;48.104;11.782;2023-06-26T08:12:00;95464.74;;;33.49;19.48
48156;BME280;35568;48.104;11.782;2023-06-26T08:14:27;95465.24;;;33.62;19.42
48156;BME280;35568;48.104;11.782;2023-06-26T08:16:53;95465.44;;;33.68;19.24
48156;BME280;35568;48.104;11.782;2023-06-26T08:19:21;95462.16;;;33.94;18.45
48156;BME280;35568;48.104;11.782;2023-06-26T08:21:48;95462.61;;;33.59;19.04
48156;BME280;35568;48.104;11.782;2023-06-26T08:24:15;95461.78;;;34.33;18.80
48156;BME280;35568;48.104;11.782;2023-06-26T08:26:42;95457.91;;;34.19;18.80
48156;BME280;35568;48.104;11.782;2023-06-26T08:29:09;95462.62;;;34.60;19.29
48156;BME280;35568;48.104;11.782;2023-06-26T08:31:36;95459.77;;;34.55;18.92
48156;BME280;35568;48.104;11.782;2023-06-26T08:34:09;95460.10;;;34.86;18.55
48156;BME280;35568;48.104;11.782;2023-06-26T08:36:35;95455.96;;;35.24;18.51
48156;BME280;35568;48.104;11.782;2023-06-26T08:39:03;95453.36;;;34.88;18.20
48156;BME280;35568;48.104;11.782;2023-06-26T08:41:29;95450.46;;;35.81;17.70
48156;BME280;35568;48.104;11.782;2023-06-26T08:43:56;95452.60;;;35.98;17.84
48156;BME280;35568;48.104;11.782;2023-06-26T08:46:23;95451.95;;;35.60;18.18
48156;BME280;35568;48.104;11.782;2023-06-26T08:48:55;95446.88;;;35.37;18.20
48156;BME280;35568;48.104;11.782;2023-06-26T08:51:24;95453.21;;;35.24;18.94
48156;BME280;35568;48.104;11.782;2023-06-26T08:53:56;95451.65;;;35.40;18.45
48156;BME280;35568;48.104;11.782;2023-06-26T08:56:25;95446.93;;;35.23;18.30
48156;BME280;35568;48.104;11.782;2023-06-26T08:58:55;95451.02;;;35.67;18.39
48156;BME280;35568;48.104;11.782;2023-06-26T09:01:22;95449.30;;;35.08;18.48
48156;BME280;35568;48.104;11.782;2023-06-26T09:03:51;95449.30;;;35.12;17.76
48156;BME280;35568;48.104;11.782;2023-06-26T09:06:19;95446.30;;;35.55;17.90
48156;BME280;35568;48.104;11.782;2023-06-26T09:08:46;95438.68;;;35.94;17.31
48156;BME280;35568;48.104;11.782;2023-06-26T09:11:12;95442.28;;;36.14;17.36
48156;BME280;35568;48.104;11.782;2023-06-26T09:13:39;95433.79;;;36.29;16.56
48156;BME280;35568;48.104;11.782;2023-06-26T09:16:07;95436.29;;;35.94;17.11
48156;BME280;35568;48.104;11.782;2023-06-26T09:18:35;95435.72;;;36.52;17.09
48156;BME280;35568;48.104;11.782;2023-06-26T09:21:07;95432.47;;;36.10;16.55
48156;BME280;35568;48.104;11.782;2023-06-26T09:23:34;95431.00;;;36.77;16.71
48156;BME280;35568;48.104;11.782;2023-06-26T09:26:02;95428.91;;;37.41;16.01
48156;BME280;35568;48.104;11.782;2023-06-26T09:28:30;95432.39;;;36.63;16.37
48156;BME280;35568;48.104;11.782;2023-06-26T09:31:01;95427.12;;;36.51;16.60
48156;BME280;35568;48.104;11.782;2023-06-26T09:33:33;95424.17;;;36.59;16.41
48156;BME280;35568;48.104;11.782;2023-06-26T09:36:00;95426.96;;;35.89;16.96
48156;BME280;35568;48.104;11.782;2023-06-26T09:38:27;95425.40;;;35.90;16.84
48156;BME280;35568;48.104;11.782;2023-06-26T09:40:54;95424.70;;;36.66;16.67
48156;BME280;35568;48.104;11.782;2023-06-26T09:43:21;95422.23;;;36.92;16.27
48156;BME280;35568;48.104;11.782;2023-06-26T09:45:49;95420.78;;;37.47;16.08
48156;BME280;35568;48.104;11.782;2023-06-26T09:48:16;95419.31;;;37.91;15.55
48156;BME280;35568;48.104;11.782;2023-06-26T09:50:43;95426.57;;;37.44;16.13
48156;BME280;35568;48.104;11.782;2023-06-26T09:53:11;95420.64;;;36.83;16.16
48156;BME280;35568;48.104;11.782;2023-06-26T09:55:39;95409.23;;;37.48;15.87
48156;BME280;35568;48.104;11.782;2023-06-26T09:58:08;95404.16;;;37.38;15.48
48156;BME280;35568;48.104;11.782;2023-06-26T10:00:36;95405.57;;;36.69;16.41
48156;BME280;35568;48.104;11.782;2023-06-26T10:03:03;95406.37;;;37.15;16.29
48156;BME280;35568;48.104;11.782;2023-06-26T10:05:30;95399.36;;;37.24;15.73
48156;BME280;35568;48.104;11.782;2023-06-26T10:07:57;95390.66;;;38.09;15.51
48156;BME280;35568;48.104;11.782;2023-06-26T10:10:25;95392.39;;;37.63;15.92
48156;BME280;35568;48.104;11.782;2023-06-26T10:12:59;95399.86;;;36.62;16.75
48156;BME280;35568;48.104;11.782;2023-06-26T10:15:27;95396.23;;;35.90;16.62
48156;BME280;35568;48.104;11.782;2023-06-26T10:17:56;95390.02;;;35.30;17.11
48156;BME280;35568;48.104;11.782;2023-06-26T10:20:24;95394.99;;;34.35;18.23
48156;BME280;35568;48.104;11.782;2023-06-26T10:22:52;95394.51;;;35.74;17.51
48156;BME280;35568;48.104;11.782;2023-06-26T10:25:24;95397.50;;;36.29;17.19
48156;BME280;35568;48.104;11.782;2023-06-26T10:27:55;95396.81;;;36.66;16.07
48156;BME280;35568;48.104;11.782;2023-06-26T10:30:28;95399.23;;;36.54;16.51
48156;BME280;35568;48.104;11.782;2023-06-26T10:32:57;95396.34;;;36.00;16.75
48156;BME280;35568;48.104;11.782;2023-06-26T10:35:24;95396.44;;;35.56;16.92
48156;BME280;35568;48.104;11.782;2023-06-26T10:37:51;95389.38;;;34.75;17.06
48156;BME280;35568;48.104;11.782;2023-06-26T10:40:24;95385.60;;;35.98;16.17
48156;BME280;35568;48.104;11.782;2023-06-26T10:43:05;95386.12;;;35.92;16.30
48156;BME280;35568;48.104;11.782;2023-06-26T10:45:33;95382.33;;;35.81;16.15
48156;BME280;35568;48.104;11.782;2023-06-26T10:48:00;95388.58;;;36.14;16.08
48156;BME280;35568;48.104;11.782;2023-06-26T10:50:29;95382.44;;;36.35;15.91
48156;BME280;35568;48.104;11.782;2023-06-26T10:53:14;95380.51;;;36.29;15.86
48156;BME280;35568;48.104;11.782;2023-06-26T10:55:43;95376.76;;;37.15;15.82
48156;BME280;35568;48.104;11.782;2023-06-26T10:58:33;95364.75;;;37.98;15.52
48156;BME280;35568;48.104;11.782;2023-06-26T11:01:18;95366.90;;;37.97;15.11
48156;BME280;35568;48.104;11.782;2023-06-26T11:03:47;95353.56;;;38.30;14.90
48156;BME280;35568;48.104;11.782;2023-06-26T11:06:17;95366.01;;;38.03;14.85
48156;BME280;35568;48.104;11.782;2023-06-26T11:08:45;95370.28;;;39.00;13.87
48156;BME280;35568;48.104;11.782;2023-06-26T11:11:13;95370.98;;;37.43;14.86
48156;BME280;35568;48.104;11.782;2023-06-26T11:13:41;95369.58;;;37.11;15.06
48156;BME280;35568;48.104;11.782;2023-06-26T11:16:08;95370.42;;;36.55;15.98
48156;BME280;35568;48.104;11.782;2023-06-26T11:18:36;95369.45;;;36.36;15.82
48156;BME280;35568;48.104;11.782;2023-06-26T11:21:07;95370.12;;;35.61;16.47
48156;BME280;35568;48.104;11.782;2023-06-26T11:23:35;95362.84;;;37.25;15.27
48156;BME280;35568;48.104;11.782;2023-06-26T11:26:19;95369.39;;;36.19;16.10
48156;BME280;35568;48.104;11.782;2023-06-26T11:28:48;95370.42;;;36.56;15.71
48156;BME280;35568;48.104;11.782;2023-06-26T11:31:32;95366.51;;;36.79;15.87
48156;BME280;35568;48.104;11.782;2023-06-26T11:34:01;95359.12;;;38.16;15.14
48156;BME280;35568;48.104;11.782;2023-06-26T11:36:29;95359.33;;;38.35;14.64
48156;BME280;35568;48.104;11.782;2023-06-26T11:38:56;95351.97;;;39.34;14.32
48156;BME280;35568;48.104;11.782;2023-06-26T11:41:25;95359.97;;;39.34;13.78
48156;BME280;35568;48.104;11.782;2023-06-26T11:43:53;95356.12;;;39.04;13.67
48156;BME280;35568;48.104;11.782;2023-06-26T11:46:21;95352.36;;;39.29;14.19
48156;BME280;35568;48.104;11.782;2023-06-26T11:48:48;95352.41;;;38.49;14.71
48156;BME280;35568;48.104;11.782;2023-06-26T11:51:16;95353.13;;;37.36;15.04
48156;BME280;35568;48.104;11.782;2023-06-26T11:53:44;95349.13;;;37.66;14.99
48156;BME280;35568;48.104;11.782;2023-06-26T11:56:12;95351.74;;;37.51;15.68
48156;BME280;35568;48.104;11.782;2023-06-26T11:58:55;95354.02;;;37.22;15.96
48156;BME280;35568;48.104;11.782;2023-06-26T12:01:22;95348.45;;;36.41;16.24
48156;BME280;35568;48.104;11.782;2023-06-26T12:03:49;95351.60;;;36.23;15.86
48156;BME280;35568;48.104;11.782;2023-06-26T12:06:17;95349.79;;;35.95;16.19
48156;BME280;35568;48.104;11.782;2023-06-26T12:08:44;95345.15;;;35.42;16.49
48156;BME280;35568;48.104;11.782;2023-06-26T12:11:13;95347.73;;;36.11;16.37
48156;BME280;35568;48.104;11.782;2023-06-26T12:13:40;95342.15;;;37.24;15.78
48156;BME280;35568;48.104;11.782;2023-06-26T12:16:07;95336.62;;;37.35;15.79
48156;BME280;35568;48.104;11.782;2023-06-26T12:18:34;95338.32;;;37.48;15.46
48156;BME280;35568;48.104;11.782;2023-06-26T12:21:02;95347.83;;;35.74;16.33
48156;BME280;35568;48.104;11.782;2023-06-26T12:23:32;95342.69;;;36.19;16.17
48156;BME280;35568;48.104;11.782;2023-06-26T12:26:16;95340.74;;;37.37;16.26
48156;BME280;35568;48.104;11.782;2023-06-26T12:28:44;95353.48;;;36.69;15.37
48156;BME280;35568;48.104;11.782;2023-06-26T12:31:13;95345.31;;;37.08;15.69
48156;BME280;35568;48.104;11.782;2023-06-26T12:33:42;95346.53;;;38.29;15.32
48156;BME280;35568;48.104;11.782;2023-06-26T12:36:11;95343.85;;;38.52;14.89
48156;BME280;35568;48.104;11.782;2023-06-26T12:38:38;95335.26;;;38.20;14.82
48156;BME280;35568;48.104;11.782;2023-06-26T12:41:04;95323.51;;;38.40;14.67
48156;BME280;35568;48.104;11.782;2023-06-26T12:43:32;95332.06;;;37.13;15.10
48156;BME280;35568;48.104;11.782;2023-06-26T12:46:04;95335.90;;;37.44;14.32
48156;BME280;35568;48.104;11.782;2023-06-26T12:48:39;95334.24;;;38.37;14.06
48156;BME280;35568;48.104;11.782;2023-06-26T12:51:09;95326.37;;;38.25;14.69
48156;BME280;35568;48.104;11.782;2023-06-26T12:53:36;95324.56;;;38.92;14.63
48156;BME280;35568;48.104;11.782;2023-06-26T12:56:03;95325.23;;;39.00;14.17
48156;BME280;35568;48.104;11.782;2023-06-26T12:58:30;95321.15;;;38.64;14.15